sensor_id;sensor_type;location;lat;lon;timestamp;pressure;altitude;pressure_sealevel;temperature;humidity
76680;BME280;65597;51.520;-0.224;2023-05-10T00:00:24;100989.84;;;12.73;50.81
76680;BME280;65597;51.520;-0.224;2023-05-10T00:02:49;100990.22;;;12.44;50.96
76680;BME280;65597;51.520;-0.224;2023-05-10T00:05:14;100992.57;;;12.92;50.87
76680;BME280;65597;51.520;-0.224;2023-05-10T00:07:39;100992.73;;;12.79;50.94
76680;BME280;65597;51.520;-0.224;2023-05-10T00:10:06;100997.39;;;12.55;50.85
76680;BME280;65597;51.520;-0.224;2023-05-10T00:12:30;100997.60;;;12.74;51.09
76680;BME280;65597;51.520;-0.224;2023-05-10T00:14:57;100998.31;;;12.45;51.11
76680;BME280;65597;51.520;-0.224;2023-05-10T00:17:21;101003.55;;;12.90;51.43
76680;BME280;65597;51.520;-0.224;2023-05-10T00:19:46;101005.49;;;12.87;51.49
76680;BME280;65597;51.520;-0.224;2023-05-10T00:22:12;101002.12;;;12.72;51.66
76680;BME280;65597;51.520;-0.224;2023-05-10T00:24:37;101002.65;;;12.58;51.44
76680;BME280;65597;51.520;-0.224;2023-05-10T00:27:04;101004.15;;;12.84;51.60
76680;BME280;65597;51.520;-0.224;2023-05-10T00:29:28;101005.99;;;12.04;52.75
76680;BME280;65597;51.520;-0.224;2023-05-10T00:31:53;101001.15;;;12.35;52.46
76680;BME280;65597;51.520;-0.224;2023-05-10T00:34:19;101005.32;;;12.18;52.37
76680;BME280;65597;51.520;-0.224;2023-05-10T00:36:44;101003.78;;;12.30;52.38
76680;BME280;65597;51.520;-0.224;2023-05-10T00:39:10;101004.13;;;12.43;52.42
76680;BME280;65597;51.520;-0.224;2023-05-10T00:41:35;101006.11;;;12.18;53.07
76680;BME280;65597;51.520;-0.224;2023-05-10T00:44:00;101007.00;;;12.24;52.93
76680;BME280;65597;51.520;-0.224;2023-05-10T00:46:26;101006.41;;;12.29;53.04
76680;BME280;65597;51.520;-0.224;2023-05-10T00:48:51;101007.11;;;12.28;53.02
76680;BME280;65597;51.520;-0.224;2023-05-10T00:51:16;101015.02;;;11.82;53.89
76680;BME280;65597;51.520;-0.224;2023-05-10T00:53:43;101012.98;;;11.81;53.86
76680;BME280;65597;51.520;-0.224;2023-05-10T00:56:07;101015.08;;;12.02;53.37
76680;BME280;65597;51.520;-0.224;2023-05-10T00:58:33;101010.49;;;12.30;53.01
76680;BME280;65597;51.520;-0.224;2023-05-10T01:00:58;101019.77;;;12.19;53.34
76680;BME280;65597;51.520;-0.224;2023-05-10T01:03:25;101017.67;;;12.39;52.91
76680;BME280;65597;51.520;-0.224;2023-05-10T01:05:49;101018.78;;;12.58;52.62
76680;BME280;65597;51.520;-0.224;2023-05-10T01:08:14;101017.63;;;12.60;52.49
76680;BME280;65597;51.520;-0.224;2023-05-10T01:10:40;101017.40;;;12.32;52.96
76680;BME280;65597;51.520;-0.224;2023-05-10T01:13:06;101020.70;;;12.67;52.40
76680;BME280;65597;51.520;-0.224;2023-05-10T01:15:33;101023.29;;;12.17;52.50
76680;BME280;65597;51.520;-0.224;2023-05-10T01:17:56;101021.59;;;12.34;52.68
76680;BME280;65597;51.520;-0.224;2023-05-10T01:20:23;101022.06;;;12.47;52.54
76680;BME280;65597;51.520;-0.224;2023-05-10T01:25:22;101032.68;;;11.75;53.57
76680;BME280;65597;51.520;-0.224;2023-05-10T01:27:49;101031.97;;;12.18;52.79
76680;BME280;65597;51.520;-0.224;2023-05-10T01:32:35;101028.95;;;12.37;52.29
76680;BME280;65597;51.520;-0.224;2023-05-10T01:34:59;101029.92;;;12.26;52.13
76680;BME280;65597;51.520;-0.224;2023-05-10T01:37:22;101031.19;;;12.33;52.36
76680;BME280;65597;51.520;-0.224;2023-05-10T01:39:50;101036.09;;;12.11;52.84
76680;BME280;65597;51.520;-0.224;2023-05-10T01:42:14;101041.26;;;12.08;52.74
76680;BME280;65597;51.520;-0.224;2023-05-10T01:44:40;101040.84;;;12.42;52.51
76680;BME280;65597;51.520;-0.224;2023-05-10T01:47:05;101040.01;;;12.50;52.48
76680;BME280;65597;51.520;-0.224;2023-05-10T01:49:31;101040.48;;;12.00;52.97
76680;BME280;65597;51.520;-0.224;2023-05-10T01:51:55;101037.84;;;11.99;52.97
76680;BME280;65597;51.520;-0.224;2023-05-10T01:54:19;101037.83;;;12.15;52.50
76680;BME280;65597;51.520;-0.224;2023-05-10T01:56:43;101038.33;;;12.08;52.73
76680;BME280;65597;51.520;-0.224;2023-05-10T01:59:12;101039.66;;;11.83;53.21
76680;BME280;65597;51.520;-0.224;2023-05-10T02:01:33;101041.55;;;11.85;53.13
76680;BME280;65597;51.520;-0.224;2023-05-10T02:03:59;101042.11;;;11.99;53.30
76680;BME280;65597;51.520;-0.224;2023-05-10T02:06:24;101043.64;;;11.90;53.01
76680;BME280;65597;51.520;-0.224;2023-05-10T02:08:50;101047.69;;;11.66;53.46
76680;BME280;65597;51.520;-0.224;2023-05-10T02:11:14;101049.98;;;11.62;53.51
76680;BME280;65597;51.520;-0.224;2023-05-10T02:13:41;101053.11;;;11.92;53.31
76680;BME280;65597;51.520;-0.224;2023-05-10T02:16:07;101054.28;;;12.08;53.07
76680;BME280;65597;51.520;-0.224;2023-05-10T02:18:36;101053.42;;;11.97;52.72
76680;BME280;65597;51.520;-0.224;2023-05-10T02:20:56;101052.53;;;12.10;52.53
76680;BME280;65597;51.520;-0.224;2023-05-10T02:23:22;101057.46;;;12.02;52.52
76680;BME280;65597;51.520;-0.224;2023-05-10T02:25:48;101059.87;;;12.21;52.24
76680;BME280;65597;51.520;-0.224;2023-05-10T02:28:14;101062.01;;;12.20;52.16
76680;BME280;65597;51.520;-0.224;2023-05-10T02:30:37;101064.85;;;12.28;51.81
76680;BME280;65597;51.520;-0.224;2023-05-10T02:33:04;101068.47;;;12.50;51.51
76680;BME280;65597;51.520;-0.224;2023-05-10T02:35:28;101071.62;;;12.57;51.36
76680;BME280;65597;51.520;-0.224;2023-05-10T02:37:54;101075.26;;;12.41;51.52
76680;BME280;65597;51.520;-0.224;2023-05-10T02:40:19;101077.46;;;12.59;51.15
76680;BME280;65597;51.520;-0.224;2023-05-10T02:42:47;101077.49;;;12.71;50.87
76680;BME280;65597;51.520;-0.224;2023-05-10T02:45:13;101082.08;;;12.20;51.38
76680;BME280;65597;51.520;-0.224;2023-05-10T02:47:35;101085.33;;;12.43;51.36
76680;BME280;65597;51.520;-0.224;2023-05-10T02:50:00;101086.85;;;12.40;51.34
76680;BME280;65597;51.520;-0.224;2023-05-10T02:52:28;101086.42;;;12.30;51.17
76680;BME280;65597;51.520;-0.224;2023-05-10T02:54:55;101084.29;;;12.49;51.10
76680;BME280;65597;51.520;-0.224;2023-05-10T02:57:17;101088.51;;;12.19;51.25
76680;BME280;65597;51.520;-0.224;2023-05-10T02:59:42;101089.68;;;12.33;51.37
76680;BME280;65597;51.520;-0.224;2023-05-10T03:02:07;101089.09;;;12.36;51.30
76680;BME280;65597;51.520;-0.224;2023-05-10T03:04:33;101090.14;;;12.48;51.16
76680;BME280;65597;51.520;-0.224;2023-05-10T03:06:58;101091.94;;;12.28;51.11
76680;BME280;65597;51.520;-0.224;2023-05-10T03:09:23;101090.83;;;12.86;50.88
76680;BME280;65597;51.520;-0.224;2023-05-10T03:11:55;101091.86;;;12.70;50.74
76680;BME280;65597;51.520;-0.224;2023-05-10T03:14:21;101091.92;;;12.47;50.54
76680;BME280;65597;51.520;-0.224;2023-05-10T03:16:44;101092.73;;;12.75;50.33
76680;BME280;65597;51.520;-0.224;2023-05-10T03:19:09;101087.17;;;12.62;50.14
76680;BME280;65597;51.520;-0.224;2023-05-10T03:21:31;101086.11;;;12.94;50.10
76680;BME280;65597;51.520;-0.224;2023-05-10T03:23:59;101084.56;;;12.49;49.97
76680;BME280;65597;51.520;-0.224;2023-05-10T03:26:24;101085.32;;;12.50;49.87
76680;BME280;65597;51.520;-0.224;2023-05-10T03:28:48;101085.64;;;12.46;49.75
76680;BME280;65597;51.520;-0.224;2023-05-10T03:31:12;101085.21;;;13.04;49.48
76680;BME280;65597;51.520;-0.224;2023-05-10T03:33:46;101086.20;;;12.78;49.42
76680;BME280;65597;51.520;-0.224;2023-05-10T03:36:02;101083.87;;;13.00;49.33
76680;BME280;65597;51.520;-0.224;2023-05-10T03:38:27;101086.10;;;12.52;49.35
76680;BME280;65597;51.520;-0.224;2023-05-10T03:40:56;101089.00;;;12.67;49.42
76680;BME280;65597;51.520;-0.224;2023-05-10T03:43:18;101088.97;;;12.95;49.21
76680;BME280;65597;51.520;-0.224;2023-05-10T03:45:43;101094.33;;;12.51;49.25
76680;BME280;65597;51.520;-0.224;2023-05-10T03:48:14;101098.18;;;12.65;49.43
76680;BME280;65597;51.520;-0.224;2023-05-10T03:50:34;101102.20;;;12.60;49.38
76680;BME280;65597;51.520;-0.224;2023-05-10T03:53:01;101102.36;;;12.46;49.08
76680;BME280;65597;51.520;-0.224;2023-05-10T03:55:25;101100.13;;;13.02;49.09
76680;BME280;65597;51.520;-0.224;2023-05-10T03:57:50;101102.46;;;12.81;49.09
76680;BME280;65597;51.520;-0.224;2023-05-10T04:00:16;101105.88;;;12.57;49.06
76680;BME280;65597;51.520;-0.224;2023-05-10T04:02:41;101106.69;;;12.80;48.94
76680;BME280;65597;51.520;-0.224;2023-05-10T04:05:07;101108.53;;;12.48;49.08
76680;BME280;65597;51.520;-0.224;2023-05-10T04:07:32;101105.89;;;12.58;48.88
76680;BME280;65597;51.520;-0.224;2023-05-10T04:09:57;101115.14;;;12.76;48.93
76680;BME280;65597;51.520;-0.224;2023-05-10T04:12:23;101116.40;;;12.54;48.79
76680;BME280;65597;51.520;-0.224;2023-05-10T04:14:48;101119.46;;;12.58;48.78
76680;BME280;65597;51.520;-0.224;2023-05-10T04:17:13;101124.05;;;12.70;48.69
76680;BME280;65597;51.520;-0.224;2023-05-10T04:19:39;101126.68;;;12.94;48.56
76680;BME280;65597;51.520;-0.224;2023-05-10T04:22:04;101125.88;;;12.60;48.66
76680;BME280;65597;51.520;-0.224;2023-05-10T04:24:31;101128.07;;;12.45;48.50
76680;BME280;65597;51.520;-0.224;2023-05-10T04:26:56;101131.19;;;12.45;48.55
76680;BME280;65597;51.520;-0.224;2023-05-10T04:29:22;101132.27;;;12.47;48.35
76680;BME280;65597;51.520;-0.224;2023-05-10T04:31:46;101129.91;;;12.66;48.36
76680;BME280;65597;51.520;-0.224;2023-05-10T04:34:11;101130.13;;;12.65;48.29
76680;BME280;65597;51.520;-0.224;2023-05-10T04:36:36;101132.72;;;12.58;48.29
76680;BME280;65597;51.520;-0.224;2023-05-10T04:39:02;101134.39;;;12.43;48.18
76680;BME280;65597;51.520;-0.224;2023-05-10T04:41:27;101138.01;;;12.63;48.26
76680;BME280;65597;51.520;-0.224;2023-05-10T04:43:52;101140.84;;;12.71;48.58
76680;BME280;65597;51.520;-0.224;2023-05-10T04:46:18;101141.81;;;12.40;48.55
76680;BME280;65597;51.520;-0.224;2023-05-10T04:48:43;101142.15;;;12.75;48.18
76680;BME280;65597;51.520;-0.224;2023-05-10T04:51:09;101146.71;;;12.40;48.56
76680;BME280;65597;51.520;-0.224;2023-05-10T04:53:35;101149.76;;;12.45;48.44
76680;BME280;65597;51.520;-0.224;2023-05-10T04:55:59;101154.18;;;12.45;48.47
76680;BME280;65597;51.520;-0.224;2023-05-10T04:58:25;101156.52;;;12.54;48.23
76680;BME280;65597;51.520;-0.224;2023-05-10T05:00:50;101156.82;;;12.56;48.10
76680;BME280;65597;51.520;-0.224;2023-05-10T05:03:15;101157.08;;;12.22;48.26
76680;BME280;65597;51.520;-0.224;2023-05-10T05:05:40;101154.71;;;12.51;48.30
76680;BME280;65597;51.520;-0.224;2023-05-10T05:08:05;101164.54;;;12.07;48.53
76680;BME280;65597;51.520;-0.224;2023-05-10T05:10:30;101168.26;;;12.20;48.80
76680;BME280;65597;51.520;-0.224;2023-05-10T05:12:56;101171.80;;;12.21;48.80
76680;BME280;65597;51.520;-0.224;2023-05-10T05:15:26;101178.99;;;12.12;48.89
76680;BME280;65597;51.520;-0.224;2023-05-10T05:17:48;101181.46;;;12.02;49.72
76680;BME280;65597;51.520;-0.224;2023-05-10T05:20:12;101188.25;;;11.86;49.49
76680;BME280;65597;51.520;-0.224;2023-05-10T05:22:37;101189.90;;;12.07;49.58
76680;BME280;65597;51.520;-0.224;2023-05-10T05:25:04;101190.24;;;12.20;49.38
76680;BME280;65597;51.520;-0.224;2023-05-10T05:27:28;101191.23;;;11.72;49.53
76680;BME280;65597;51.520;-0.224;2023-05-10T05:29:54;101191.71;;;11.85;49.49
76680;BME280;65597;51.520;-0.224;2023-05-10T05:32:19;101197.16;;;11.25;51.01
76680;BME280;65597;51.520;-0.224;2023-05-10T05:34:44;101198.18;;;11.24;51.02
76680;BME280;65597;51.520;-0.224;2023-05-10T05:37:12;101201.66;;;11.13;50.69
76680;BME280;65597;51.520;-0.224;2023-05-10T05:39:36;101200.60;;;11.22;50.95
76680;BME280;65597;51.520;-0.224;2023-05-10T05:42:00;101202.35;;;11.01;52.07
76680;BME280;65597;51.520;-0.224;2023-05-10T05:44:25;101207.80;;;11.32;51.57
76680;BME280;65597;51.520;-0.224;2023-05-10T05:46:51;101206.82;;;10.68;52.77
76680;BME280;65597;51.520;-0.224;2023-05-10T05:49:16;101209.89;;;10.70;52.55
76680;BME280;65597;51.520;-0.224;2023-05-10T05:51:41;101213.00;;;11.12;51.94
76680;BME280;65597;51.520;-0.224;2023-05-10T05:54:07;101211.70;;;11.25;51.45
76680;BME280;65597;51.520;-0.224;2023-05-10T05:56:32;101215.85;;;11.19;51.37
76680;BME280;65597;51.520;-0.224;2023-05-10T05:58:57;101217.39;;;10.83;52.17
76680;BME280;65597;51.520;-0.224;2023-05-10T06:01:23;101219.35;;;10.71;52.73
76680;BME280;65597;51.520;-0.224;2023-05-10T06:03:48;101219.39;;;10.91;52.40
76680;BME280;65597;51.520;-0.224;2023-05-10T06:06:14;101219.18;;;10.56;52.57
76680;BME280;65597;51.520;-0.224;2023-05-10T06:08:38;101221.98;;;10.27;53.18
76680;BME280;65597;51.520;-0.224;2023-05-10T06:11:04;101223.39;;;10.10;53.61
76680;BME280;65597;51.520;-0.224;2023-05-10T06:13:29;101220.96;;;10.60;52.98
76680;BME280;65597;51.520;-0.224;2023-05-10T06:15:54;101223.58;;;10.64;52.81
76680;BME280;65597;51.520;-0.224;2023-05-10T06:18:21;101227.50;;;10.42;53.21
76680;BME280;65597;51.520;-0.224;2023-05-10T06:20:45;101227.61;;;9.71;55.17
76680;BME280;65597;51.520;-0.224;2023-05-10T06:23:10;101230.73;;;10.08;53.88
76680;BME280;65597;51.520;-0.224;2023-05-10T06:25:36;101230.70;;;10.19;53.48
76680;BME280;65597;51.520;-0.224;2023-05-10T06:28:02;101228.57;;;10.41;53.12
76680;BME280;65597;51.520;-0.224;2023-05-10T06:30:28;101231.57;;;10.28;53.45
76680;BME280;65597;51.520;-0.224;2023-05-10T06:32:53;101230.23;;;10.64;53.06
76680;BME280;65597;51.520;-0.224;2023-05-10T06:35:18;101235.13;;;10.28;53.44
76680;BME280;65597;51.520;-0.224;2023-05-10T06:37:44;101235.78;;;10.68;53.09
76680;BME280;65597;51.520;-0.224;2023-05-10T06:40:10;101237.83;;;10.60;53.13
76680;BME280;65597;51.520;-0.224;2023-05-10T06:42:36;101235.20;;;10.75;52.81
76680;BME280;65597;51.520;-0.224;2023-05-10T06:45:00;101235.31;;;10.95;52.62
76680;BME280;65597;51.520;-0.224;2023-05-10T06:47:26;101235.87;;;11.03;53.20
76680;BME280;65597;51.520;-0.224;2023-05-10T06:49:51;101232.45;;;11.26;51.93
76680;BME280;65597;51.520;-0.224;2023-05-10T06:52:17;101234.42;;;11.26;51.95
76680;BME280;65597;51.520;-0.224;2023-05-10T06:54:42;101232.00;;;11.51;51.27
76680;BME280;65597;51.520;-0.224;2023-05-10T06:57:07;101231.82;;;10.95;52.37
76680;BME280;65597;51.520;-0.224;2023-05-10T06:59:33;101233.66;;;10.78;52.66
76680;BME280;65597;51.520;-0.224;2023-05-10T07:01:58;101235.22;;;10.99;52.45
76680;BME280;65597;51.520;-0.224;2023-05-10T07:04:25;101237.62;;;10.87;52.05
76680;BME280;65597;51.520;-0.224;2023-05-10T07:06:49;101236.66;;;11.17;51.12
76680;BME280;65597;51.520;-0.224;2023-05-10T07:09:14;101237.61;;;11.52;51.29
76680;BME280;65597;51.520;-0.224;2023-05-10T07:11:40;101236.89;;;10.80;51.85
76680;BME280;65597;51.520;-0.224;2023-05-10T07:14:10;101235.46;;;10.89;51.18
76680;BME280;65597;51.520;-0.224;2023-05-10T07:16:30;101239.29;;;10.84;51.71
76680;BME280;65597;51.520;-0.224;2023-05-10T07:18:55;101241.71;;;11.35;51.24
76680;BME280;65597;51.520;-0.224;2023-05-10T07:21:21;101244.98;;;10.75;52.53
76680;BME280;65597;51.520;-0.224;2023-05-10T07:23:46;101243.27;;;11.06;52.28
76680;BME280;65597;51.520;-0.224;2023-05-10T07:26:12;101246.79;;;11.08;51.92
76680;BME280;65597;51.520;-0.224;2023-05-10T07:28:36;101250.26;;;10.85;51.64
76680;BME280;65597;51.520;-0.224;2023-05-10T07:31:04;101252.75;;;11.09;52.05
76680;BME280;65597;51.520;-0.224;2023-05-10T07:33:27;101256.03;;;11.05;51.92
76680;BME280;65597;51.520;-0.224;2023-05-10T07:35:52;101259.25;;;11.32;51.61
76680;BME280;65597;51.520;-0.224;2023-05-10T07:38:18;101264.12;;;11.53;51.23
76680;BME280;65597;51.520;-0.224;2023-05-10T07:40:43;101264.20;;;11.65;51.06
76680;BME280;65597;51.520;-0.224;2023-05-10T07:43:08;101264.70;;;11.33;51.74
76680;BME280;65597;51.520;-0.224;2023-05-10T07:45:33;101263.39;;;11.42;51.33
76680;BME280;65597;51.520;-0.224;2023-05-10T07:47:59;101264.39;;;11.41;51.30
76680;BME280;65597;51.520;-0.224;2023-05-10T07:50:24;101262.04;;;11.38;50.69
76680;BME280;65597;51.520;-0.224;2023-05-10T07:52:49;101260.52;;;11.06;51.91
76680;BME280;65597;51.520;-0.224;2023-05-10T07:55:15;101260.16;;;10.29;53.35
76680;BME280;65597;51.520;-0.224;2023-05-10T07:57:41;101259.82;;;10.47;53.87
76680;BME280;65597;51.520;-0.224;2023-05-10T08:00:08;101261.70;;;10.78;53.08
76680;BME280;65597;51.520;-0.224;2023-05-10T08:02:32;101260.32;;;11.45;52.04
76680;BME280;65597;51.520;-0.224;2023-05-10T08:04:56;101263.99;;;11.38;51.79
76680;BME280;65597;51.520;-0.224;2023-05-10T08:07:23;101258.78;;;10.77;51.86
76680;BME280;65597;51.520;-0.224;2023-05-10T08:09:47;101264.18;;;11.28;51.61
76680;BME280;65597;51.520;-0.224;2023-05-10T08:12:12;101269.42;;;11.33;52.29
76680;BME280;65597;51.520;-0.224;2023-05-10T08:14:38;101268.27;;;10.77;52.67
76680;BME280;65597;51.520;-0.224;2023-05-10T08:17:04;101268.93;;;11.09;52.37
76680;BME280;65597;51.520;-0.224;2023-05-10T08:19:29;101271.58;;;10.08;53.46
76680;BME280;65597;51.520;-0.224;2023-05-10T08:21:54;101275.33;;;10.83;52.44
76680;BME280;65597;51.520;-0.224;2023-05-10T08:24:20;101277.59;;;11.17;51.49
76680;BME280;65597;51.520;-0.224;2023-05-10T08:26:45;101280.02;;;11.00;52.68
76680;BME280;65597;51.520;-0.224;2023-05-10T08:29:10;101280.49;;;10.83;52.59
76680;BME280;65597;51.520;-0.224;2023-05-10T08:31:37;101278.49;;;10.95;52.62
76680;BME280;65597;51.520;-0.224;2023-05-10T08:34:01;101278.59;;;11.08;52.93
76680;BME280;65597;51.520;-0.224;2023-05-10T08:36:27;101282.46;;;11.28;52.32
76680;BME280;65597;51.520;-0.224;2023-05-10T08:38:52;101280.68;;;11.51;51.67
76680;BME280;65597;51.520;-0.224;2023-05-10T08:41:23;101279.93;;;11.24;52.08
76680;BME280;65597;51.520;-0.224;2023-05-10T08:43:44;101282.17;;;11.40;51.92
76680;BME280;65597;51.520;-0.224;2023-05-10T08:46:09;101283.84;;;11.57;51.72
76680;BME280;65597;51.520;-0.224;2023-05-10T08:48:34;101283.26;;;11.69;51.13
76680;BME280;65597;51.520;-0.224;2023-05-10T08:51:00;101286.51;;;11.50;51.46
76680;BME280;65597;51.520;-0.224;2023-05-10T08:53:24;101284.86;;;11.33;51.55
76680;BME280;65597;51.520;-0.224;2023-05-10T08:55:49;101283.46;;;11.24;50.72
76680;BME280;65597;51.520;-0.224;2023-05-10T08:58:15;101285.76;;;11.02;51.96
76680;BME280;65597;51.520;-0.224;2023-05-10T09:00:40;101283.40;;;11.24;50.68
76680;BME280;65597;51.520;-0.224;2023-05-10T09:03:05;101285.92;;;10.65;51.80
76680;BME280;65597;51.520;-0.224;2023-05-10T09:05:31;101283.52;;;11.58;50.69
76680;BME280;65597;51.520;-0.224;2023-05-10T09:07:56;101284.80;;;11.18;51.08
76680;BME280;65597;51.520;-0.224;2023-05-10T09:10:22;101286.19;;;11.13;51.10
76680;BME280;65597;51.520;-0.224;2023-05-10T09:12:48;101286.19;;;11.42;50.67
76680;BME280;65597;51.520;-0.224;2023-05-10T09:15:15;101282.74;;;11.58;50.49
76680;BME280;65597;51.520;-0.224;2023-05-10T09:17:38;101279.28;;;11.83;50.38
76680;BME280;65597;51.520;-0.224;2023-05-10T09:20:05;101284.36;;;11.28;50.49
76680;BME280;65597;51.520;-0.224;2023-05-10T09:22:28;101286.31;;;11.74;50.54
76680;BME280;65597;51.520;-0.224;2023-05-10T09:25:05;101282.11;;;11.57;50.71
76680;BME280;65597;51.520;-0.224;2023-05-10T09:27:26;101285.65;;;11.75;50.77
76680;BME280;65597;51.520;-0.224;2023-05-10T09:29:44;101286.59;;;11.66;51.33
76680;BME280;65597;51.520;-0.224;2023-05-10T09:32:11;101288.68;;;11.49;50.62
76680;BME280;65597;51.520;-0.224;2023-05-10T09:34:35;101290.29;;;12.00;49.88
76680;BME280;65597;51.520;-0.224;2023-05-10T09:37:02;101285.79;;;11.54;50.15
76680;BME280;65597;51.520;-0.224;2023-05-10T09:39:32;101285.46;;;11.97;49.51
76680;BME280;65597;51.520;-0.224;2023-05-10T09:41:51;101286.43;;;12.18;48.98
76680;BME280;65597;51.520;-0.224;2023-05-10T09:44:17;101285.26;;;12.43;48.80
76680;BME280;65597;51.520;-0.224;2023-05-10T09:46:42;101281.47;;;12.52;48.39
76680;BME280;65597;51.520;-0.224;2023-05-10T09:49:08;101288.33;;;12.30;48.11
76680;BME280;65597;51.520;-0.224;2023-05-10T09:51:34;101289.01;;;12.47;47.96
76680;BME280;65597;51.520;-0.224;2023-05-10T09:54:09;101285.54;;;12.16;48.49
76680;BME280;65597;51.520;-0.224;2023-05-10T09:56:33;101284.49;;;12.15;48.07
76680;BME280;65597;51.520;-0.224;2023-05-10T10:01:15;101288.23;;;12.49;48.27
76680;BME280;65597;51.520;-0.224;2023-05-10T10:03:42;101289.47;;;12.29;47.59
76680;BME280;65597;51.520;-0.224;2023-05-10T10:06:07;101291.90;;;12.48;47.68
76680;BME280;65597;51.520;-0.224;2023-05-10T10:08:32;101292.30;;;12.25;47.18
76680;BME280;65597;51.520;-0.224;2023-05-10T10:10:56;101291.24;;;12.38;47.12
76680;BME280;65597;51.520;-0.224;2023-05-10T10:13:21;101293.46;;;11.98;47.10
76680;BME280;65597;51.520;-0.224;2023-05-10T10:15:47;101288.13;;;11.93;46.69
76680;BME280;65597;51.520;-0.224;2023-05-10T10:18:13;101286.85;;;11.62;47.11
76680;BME280;65597;51.520;-0.224;2023-05-10T10:20:40;101290.26;;;12.03;46.25
76680;BME280;65597;51.520;-0.224;2023-05-10T10:23:03;101291.12;;;12.40;45.39
76680;BME280;65597;51.520;-0.224;2023-05-10T10:25:29;101291.27;;;13.03;44.19
76680;BME280;65597;51.520;-0.224;2023-05-10T10:28:04;101289.46;;;12.69;44.40
76680;BME280;65597;51.520;-0.224;2023-05-10T10:30:25;101290.20;;;12.60;44.79
76680;BME280;65597;51.520;-0.224;2023-05-10T10:33:01;101289.65;;;12.78;44.46
76680;BME280;65597;51.520;-0.224;2023-05-10T10:35:10;101287.33;;;13.11;43.07
76680;BME280;65597;51.520;-0.224;2023-05-10T10:37:43;101279.88;;;13.43;43.01
76680;BME280;65597;51.520;-0.224;2023-05-10T10:42:45;101279.99;;;13.54;43.33
76680;BME280;65597;51.520;-0.224;2023-05-10T10:47:23;101275.09;;;13.66;42.65
76680;BME280;65597;51.520;-0.224;2023-05-10T10:49:43;101276.11;;;12.76;45.38
76680;BME280;65597;51.520;-0.224;2023-05-10T10:52:14;101271.05;;;12.81;43.95
76680;BME280;65597;51.520;-0.224;2023-05-10T10:54:33;101266.50;;;13.60;41.63
76680;BME280;65597;51.520;-0.224;2023-05-10T10:57:10;101269.84;;;13.63;41.07
76680;BME280;65597;51.520;-0.224;2023-05-10T10:59:26;101267.75;;;13.49;40.60
76680;BME280;65597;51.520;-0.224;2023-05-10T11:01:51;101260.16;;;13.53;39.84
76680;BME280;65597;51.520;-0.224;2023-05-10T11:04:18;101258.28;;;13.80;40.79
76680;BME280;65597;51.520;-0.224;2023-05-10T11:06:40;101262.62;;;13.92;40.35
76680;BME280;65597;51.520;-0.224;2023-05-10T11:09:07;101263.87;;;14.31;38.49
76680;BME280;65597;51.520;-0.224;2023-05-10T11:11:31;101261.68;;;14.72;39.13
76680;BME280;65597;51.520;-0.224;2023-05-10T11:14:02;101251.26;;;14.46;37.54
76680;BME280;65597;51.520;-0.224;2023-05-10T11:16:23;101253.19;;;14.28;38.22
76680;BME280;65597;51.520;-0.224;2023-05-10T11:18:53;101251.35;;;14.54;39.77
76680;BME280;65597;51.520;-0.224;2023-05-10T11:21:12;101259.72;;;13.87;39.74
76680;BME280;65597;51.520;-0.224;2023-05-10T11:23:48;101257.05;;;13.50;39.63
76680;BME280;65597;51.520;-0.224;2023-05-10T11:26:03;101259.03;;;14.16;38.88
76680;BME280;65597;51.520;-0.224;2023-05-10T11:28:28;101253.87;;;13.67;38.96
76680;BME280;65597;51.520;-0.224;2023-05-10T11:30:54;101253.59;;;13.87;38.75
76680;BME280;65597;51.520;-0.224;2023-05-10T11:33:20;101255.08;;;13.66;40.24
76680;BME280;65597;51.520;-0.224;2023-05-10T11:35:44;101251.60;;;13.73;39.80
76680;BME280;65597;51.520;-0.224;2023-05-10T11:38:10;101257.60;;;13.98;40.04
76680;BME280;65597;51.520;-0.224;2023-05-10T11:40:35;101252.26;;;14.69;38.34
76680;BME280;65597;51.520;-0.224;2023-05-10T11:43:00;101250.46;;;14.73;38.79
76680;BME280;65597;51.520;-0.224;2023-05-10T11:45:26;101250.60;;;14.74;38.51
76680;BME280;65597;51.520;-0.224;2023-05-10T11:47:51;101244.82;;;14.62;38.59
76680;BME280;65597;51.520;-0.224;2023-05-10T11:50:21;101248.76;;;14.69;37.51
76680;BME280;65597;51.520;-0.224;2023-05-10T11:52:41;101257.55;;;14.16;37.47
76680;BME280;65597;51.520;-0.224;2023-05-10T11:55:07;101256.66;;;14.30;36.88
76680;BME280;65597;51.520;-0.224;2023-05-10T11:57:32;101253.95;;;14.42;36.61
76680;BME280;65597;51.520;-0.224;2023-05-10T11:59:57;101256.90;;;14.33;38.44
76680;BME280;65597;51.520;-0.224;2023-05-10T12:02:23;101258.70;;;14.40;39.14
76680;BME280;65597;51.520;-0.224;2023-05-10T12:04:48;101257.11;;;14.45;38.78
76680;BME280;65597;51.520;-0.224;2023-05-10T12:07:13;101264.49;;;14.35;39.86
76680;BME280;65597;51.520;-0.224;2023-05-10T12:09:42;101263.42;;;14.01;41.78
76680;BME280;65597;51.520;-0.224;2023-05-10T12:12:04;101262.61;;;13.40;41.19
76680;BME280;65597;51.520;-0.224;2023-05-10T12:14:34;101270.75;;;13.41;42.86
76680;BME280;65597;51.520;-0.224;2023-05-10T12:16:57;101275.28;;;13.28;42.81
76680;BME280;65597;51.520;-0.224;2023-05-10T12:19:20;101275.85;;;13.11;44.37
76680;BME280;65597;51.520;-0.224;2023-05-10T12:21:45;101276.19;;;13.40;46.12
76680;BME280;65597;51.520;-0.224;2023-05-10T12:24:11;101277.54;;;12.69;45.45
76680;BME280;65597;51.520;-0.224;2023-05-10T12:26:36;101275.83;;;13.50;44.82
76680;BME280;65597;51.520;-0.224;2023-05-10T12:29:12;101271.39;;;13.52;45.16
76680;BME280;65597;51.520;-0.224;2023-05-10T12:31:27;101268.14;;;13.71;45.13
76680;BME280;65597;51.520;-0.224;2023-05-10T12:33:52;101265.31;;;13.60;45.51
76680;BME280;65597;51.520;-0.224;2023-05-10T12:36:23;101268.81;;;13.32;43.93
76680;BME280;65597;51.520;-0.224;2023-05-10T12:38:44;101263.98;;;13.67;43.52
76680;BME280;65597;51.520;-0.224;2023-05-10T12:41:10;101270.06;;;13.94;43.75